Time;durP1;ratioP1;P1;durP2;ratioP2;P2;SDS_P1;SDS_P2;PMS_P1;PMS_P2;Temp;Humidity;BMP_temperature;BMP_pressure;BME280_temperature;BME280_humidity;BME280_pressure;Samples;Min_cycle;Max_cycle;Signal;HPM_P1;HPM_P2
2021/12/02 00:01:27;;;;;;;1.50;0.73;;;6.80;76.40;;;5.32;83.57;94312.44;4966443;28;20034;-69
2021/12/02 00:03:55;;;;;;;2.90;0.80;;;6.80;76.40;;;5.32;84.01;94330.69;4960279;28;20065;-68
2021/12/02 00:06:21;;;;;;;1.35;0.77;;;6.80;76.50;;;5.32;83.38;94315.03;4971685;28;20133;-69
2021/12/02 00:08:48;;;;;;;1.10;0.70;;;6.90;76.50;;;5.31;83.19;94310.84;4963377;28;20387;-69
2021/12/02 00:11:14;;;;;;;1.60;1.00;;;6.80;76.60;;;5.27;83.78;94306.22;4976843;28;20053;-69
2021/12/02 00:13:53;;;;;;;1.13;0.77;;;6.80;76.90;;;5.26;84.01;94307.22;4965037;28;20043;-69
2021/12/02 00:16:51;;;;;;;1.50;0.73;;;6.80;76.80;;;5.22;83.95;94305.03;4952734;28;20407;-70
2021/12/02 00:22:02;;;;;;;1.00;0.70;;;6.70;77.00;;;5.17;83.65;94306.59;4974120;28;20096;-69
2021/12/02 00:24:35;;;;;;;1.30;0.75;;;6.70;77.10;;;5.18;84.54;94308.22;4955503;28;20034;-69
2021/12/02 00:27:04;;;;;;;1.55;0.65;;;6.70;76.90;;;5.17;83.54;94311.81;4971595;28;20078;-68
2021/12/02 00:29:30;;;;;;;1.10;0.80;;;6.70;76.80;;;5.16;83.73;94312.81;4975642;28;20046;-69
2021/12/02 00:31:56;;;;;;;0.75;0.60;;;6.70;77.10;;;5.14;84.32;94307.00;4951590;28;20045;-68
2021/12/02 00:34:22;;;;;;;1.05;0.60;;;6.60;77.10;;;5.12;83.93;94309.00;4956572;28;20035;-68
2021/12/02 00:36:48;;;;;;;0.95;0.50;;;6.60;77.10;;;5.11;84.06;94307.41;4991773;28;20031;-69
2021/12/02 00:39:17;;;;;;;2.15;0.60;;;6.70;76.80;;;5.10;83.66;94311.81;4990253;28;20050;-68
2021/12/02 00:41:43;;;;;;;1.00;0.70;;;6.70;76.80;;;5.09;84.36;94306.81;4958304;28;20189;-69
2021/12/02 00:44:09;;;;;;;1.38;0.60;;;6.60;76.80;;;5.10;84.17;94311.00;4938445;28;20047;-70
2021/12/02 00:46:35;;;;;;;1.15;0.60;;;6.60;76.80;;;5.09;84.27;94310.22;4960421;28;20038;-69
2021/12/02 00:49:03;;;;;;;1.15;0.43;;;6.70;76.70;;;5.09;84.25;94312.00;4967674;28;20035;-69
2021/12/02 00:51:34;;;;;;;1.80;0.70;;;6.70;76.80;;;5.09;83.77;94325.03;4972443;28;20114;-69
2021/12/02 00:54:02;;;;;;;1.23;0.50;;;6.60;76.90;;;5.07;84.09;94311.41;4980356;28;20499;-69
2021/12/02 00:56:28;;;;;;;1.13;0.70;;;6.60;77.20;;;5.07;84.19;94319.22;4991814;28;20038;-69
2021/12/02 00:58:54;;;;;;;1.17;0.65;;;6.60;76.90;;;5.06;84.39;94322.84;4959855;28;20426;-65
2021/12/02 01:01:23;;;;;;;2.42;0.80;;;6.60;77.00;;;5.07;84.83;94327.84;4986618;28;20722;-67
2021/12/02 01:03:54;;;;;;;0.88;0.60;;;6.70;77.00;;;5.06;84.83;94322.84;4967607;28;20034;-69
2021/12/02 01:06:20;;;;;;;1.00;0.68;;;6.60;77.20;;;5.05;84.41;94329.06;4960512;28;20022;-68
2021/12/02 01:08:45;;;;;;;1.35;0.80;;;6.60;77.40;;;5.02;84.45;94325.03;4953052;28;20041;-68
2021/12/02 01:11:12;;;;;;;1.17;0.60;;;6.60;77.40;;;5.02;84.65;94321.63;4957147;28;20095;-67
2021/12/02 01:13:38;;;;;;;0.93;0.73;;;6.60;77.40;;;5.03;84.25;94331.06;4969332;28;20055;-68
2021/12/02 01:16:04;;;;;;;1.10;0.80;;;6.60;77.40;;;5.02;85.00;94321.63;4956087;28;20038;-67
2021/12/02 01:18:30;;;;;;;1.05;0.70;;;6.60;77.50;;;5.00;85.23;94328.84;4951404;28;20134;-68
2021/12/02 01:20:55;;;;;;;1.00;0.90;;;6.50;77.60;;;5.00;85.26;94324.44;4994232;28;20042;-67
2021/12/02 01:23:22;;;;;;;1.30;0.68;;;6.50;77.60;;;5.01;84.30;94327.84;4974172;28;20060;-67
2021/12/02 01:26:04;;;;;;;1.45;0.68;;;6.60;77.60;;;5.00;85.13;94326.25;4974453;28;20408;-68
2021/12/02 01:28:30;;;;;;;0.90;0.70;;;6.50;77.70;;;4.99;84.84;94324.66;4971992;28;20030;-67
2021/12/02 01:30:56;;;;;;;1.00;0.68;;;6.50;77.70;;;4.96;85.24;94325.00;4959225;28;20031;-68
2021/12/02 01:33:23;;;;;;;0.68;0.60;;;6.50;77.70;;;4.97;84.83;94318.81;4944595;28;20031;-68
2021/12/02 01:35:54;;;;;;;0.50;0.50;;;6.50;77.70;;;4.96;85.19;94325.81;4974595;28;20035;-68
2021/12/02 01:38:22;;;;;;;0.80;0.60;;;6.50;77.50;;;4.94;84.72;94312.19;4958791;28;20446;-68
2021/12/02 01:40:48;;;;;;;1.48;0.80;;;6.50;77.30;;;4.96;84.49;94310.19;4957742;28;20053;-68
2021/12/02 01:43:16;;;;;;;1.00;0.60;;;6.50;77.20;;;4.97;84.87;94316.19;4988338;28;20115;-69
2021/12/02 01:45:42;;;;;;;0.68;0.30;;;6.50;77.10;;;4.97;84.14;94309.19;4955248;28;20114;-68
2021/12/02 01:48:10;;;;;;;0.82;0.52;;;6.40;77.10;;;4.97;84.32;94313.59;4955240;28;20045;-69
2021/12/02 01:50:36;;;;;;;1.10;0.50;;;6.40;76.90;;;4.96;84.35;94319.81;4959179;28;20030;-68
2021/12/02 01:53:03;;;;;;;1.45;0.60;;;6.50;76.80;;;4.95;84.81;94310.38;4958219;28;20031;-68
2021/12/02 01:55:29;;;;;;;0.70;0.60;;;6.40;76.70;;;4.95;84.69;94307.78;4940767;28;20142;-68
2021/12/02 01:58:01;;;;;;;1.25;0.70;;;6.50;76.70;;;4.93;84.42;94311.38;4985425;28;20058;-68
2021/12/02 02:00:32;;;;;;;1.08;0.50;;;6.50;76.60;;;4.91;84.09;94317.78;4957907;28;20038;-68
2021/12/02 02:03:02;;;;;;;0.70;0.50;;;6.40;76.60;;;4.88;84.11;94315.59;4985075;28;20038;-69
2021/12/02 02:05:28;;;;;;;1.05;0.60;;;6.40;76.60;;;4.86;83.71;94325.41;4982967;28;20069;-68
2021/12/02 02:08:16;;;;;;;0.90;0.43;;;6.40;76.70;;;4.87;83.44;94327.00;4976913;28;20038;-69
2021/12/02 02:10:42;;;;;;;0.65;0.32;;;6.40;76.60;;;4.86;83.71;94325.41;4971682;28;20055;-69
2021/12/02 02:13:09;;;;;;;0.88;0.50;;;6.40;76.70;;;4.87;83.93;94327.00;4962330;28;20031;-69
2021/12/02 02:15:40;;;;;;;1.10;0.50;;;6.40;76.50;;;4.89;84.46;94331.03;4974138;28;20088;-68
2021/12/02 02:20:47;;;;;;;1.15;0.50;;;6.50;76.40;;;4.93;83.26;94334.84;4981836;28;20035;-68
2021/12/02 02:23:13;;;;;;;1.65;0.43;;;6.50;75.90;;;4.93;84.13;94334.84;4974616;28;20145;-68
2021/12/02 02:25:39;;;;;;;1.80;0.40;;;6.50;76.30;;;4.95;83.65;94339.03;4963300;28;20150;-69
2021/12/02 02:28:05;;;;;;;0.80;0.50;;;6.50;76.90;;;4.98;85.10;94354.28;4979766;28;20080;-69
2021/12/02 02:30:31;;;;;;;1.25;0.60;;;6.60;77.60;;;4.94;85.27;94346.06;4990159;28;20042;-68
2021/12/02 02:32:57;;;;;;;0.90;0.50;;;6.50;78.70;;;4.93;85.68;94350.47;4969476;28;20419;-68
2021/12/02 02:35:23;;;;;;;3.60;0.70;;;6.50;79.40;;;4.90;86.71;94355.25;4962837;28;20039;-68
2021/12/02 02:37:48;;;;;;;2.92;0.77;;;6.50;80.10;;;4.87;87.24;94353.06;4955496;28;20046;-68
2021/12/02 02:40:16;;;;;;;1.38;0.50;;;6.40;80.40;;;4.83;87.65;94352.66;4971108;28;20039;-68
2021/12/02 02:42:45;;;;;;;0.82;0.50;;;6.20;80.90;;;4.80;88.14;94358.25;4954474;28;20046;-67
2021/12/02 02:45:11;;;;;;;1.15;0.52;;;6.30;81.00;;;4.80;88.26;94363.47;4984870;28;20043;-69
2021/12/02 02:47:37;;;;;;;1.00;0.50;;;6.40;81.00;;;4.77;87.96;94363.88;4957402;28;20030;-69
2021/12/02 02:50:03;;;;;;;0.80;0.35;;;6.40;80.90;;;4.74;88.74;94364.22;4982631;28;20546;-70
2021/12/02 02:52:31;;;;;;;0.40;0.28;;;6.40;80.90;;;4.72;89.16;94368.03;4973829;28;20508;-69
2021/12/02 02:54:57;;;;;;;0.30;0.20;;;6.30;81.00;;;4.66;88.91;94376.63;4957575;28;20051;-69
2021/12/02 02:57:26;;;;;;;0.40;0.20;;;6.10;82.10;;;4.61;89.20;94385.81;4989342;28;20096;-69
2021/12/02 03:00:09;;;;;;;0.32;0.20;;;6.10;81.90;;;4.53;89.75;94387.81;4925790;28;20039;-69
2021/12/02 03:05:23;;;;;;;0.38;0.20;;;5.90;83.30;;;4.40;90.80;94378.13;4956887;28;20038;-69
2021/12/02 03:07:55;;;;;;;0.35;0.30;;;5.70;83.40;;;4.30;91.03;94375.09;4954106;28;20038;-70
2021/12/02 03:13:23;;;;;;;0.52;0.20;;;5.70;83.30;;;4.23;90.31;94384.63;4958547;28;20454;-69
2021/12/02 03:18:36;;;;;;;0.20;0.20;;;5.70;83.20;;;4.19;90.78;94376.41;4978022;28;20096;-69
2021/12/02 03:21:02;;;;;;;1.10;0.13;;;5.90;82.60;;;4.20;90.87;94372.00;4987346;28;20030;-69
2021/12/02 03:23:28;;;;;;;1.77;0.20;;;5.90;82.20;;;4.18;91.02;94380.00;4966495;28;20030;-69
2021/12/02 03:25:53;;;;;;;0.90;0.30;;;5.70;82.30;;;4.16;91.52;94376.78;4969974;28;20023;-69
2021/12/02 03:28:19;;;;;;;1.05;0.20;;;5.80;82.60;;;4.13;90.53;94366.78;4986826;28;20030;-66
2021/12/02 03:30:45;;;;;;;0.57;0.20;;;5.80;82.10;;;4.12;90.48;94370.38;4970851;28;20041;-66
2021/12/02 03:33:11;;;;;;;1.10;0.38;;;5.70;81.20;;;4.11;90.31;94376.56;4955619;28;20116;-68
2021/12/02 03:35:36;;;;;;;0.47;0.20;;;5.70;80.80;;;4.10;89.41;94374.97;4972886;28;20093;-68
2021/12/02 03:38:03;;;;;;;1.92;0.28;;;5.70;81.20;;;4.10;89.50;94377.56;4986468;28;20042;-67
2021/12/02 03:40:28;;;;;;;0.68;0.20;;;5.80;80.90;;;4.08;90.19;94379.56;4989097;28;20038;-67
2021/12/02 03:42:54;;;;;;;2.88;0.38;;;5.70;80.60;;;4.06;89.56;94381.53;4974107;28;20578;-68
2021/12/02 03:45:22;;;;;;;1.45;0.40;;;5.70;80.60;;;4.06;89.32;94384.13;4953502;28;20372;-67
2021/12/02 03:47:48;;;;;;;2.30;0.30;;;5.70;80.70;;;4.05;89.60;94382.50;4963251;28;20453;-67
2021/12/02 03:50:14;;;;;;;0.77;0.30;;;5.70;80.40;;;4.05;89.67;94379.91;4968568;28;20030;-67
2021/12/02 03:52:40;;;;;;;1.38;0.28;;;5.60;80.50;;;4.04;89.68;94380.91;4967130;28;20042;-67
2021/12/02 03:55:06;;;;;;;0.80;0.20;;;5.70;80.50;;;4.03;88.93;94381.09;4957054;28;20038;-67
2021/12/02 03:57:32;;;;;;;0.80;0.30;;;5.70;80.50;;;4.02;89.73;94377.69;4963272;28;20121;-68
2021/12/02 04:00:02;;;;;;;2.13;0.40;;;5.70;80.40;;;4.01;89.49;94376.09;4972481;28;20031;-67
2021/12/02 04:02:28;;;;;;;2.20;0.30;;;5.60;80.40;;;4.02;89.68;94380.31;4962676;28;20042;-68
2021/12/02 04:04:54;;;;;;;4.55;0.43;;;5.70;80.30;;;4.00;89.71;94382.28;4934665;28;20043;-68
2021/12/02 04:07:23;;;;;;;1.55;0.40;;;5.60;80.20;;;4.01;89.21;94376.09;4987934;28;20037;-68
2021/12/02 04:09:49;;;;;;;1.08;0.32;;;5.70;80.10;;;3.99;89.09;94376.28;4957099;28;20038;-69
2021/12/02 04:12:29;;;;;;;2.50;0.40;;;5.80;80.00;;;3.99;89.24;94375.47;4972324;28;20187;-69
2021/12/02 04:15:04;;;;;;;2.17;0.40;;;5.70;80.20;;;3.97;88.81;94378.28;4974426;28;20046;-69
2021/12/02 04:17:41;;;;;;;1.10;0.40;;;5.60;80.40;;;3.97;89.83;94377.47;4954335;28;20037;-69
2021/12/02 04:20:13;;;;;;;1.30;0.30;;;5.60;80.40;;;3.94;89.13;94383.06;4988678;28;20038;-70
2021/12/02 04:22:39;;;;;;;1.80;0.40;;;5.60;80.00;;;3.90;89.59;94377.44;4952809;28;20121;-69
2021/12/02 04:25:06;;;;;;;2.55;0.60;;;5.50;80.10;;;3.89;89.45;94380.22;4969388;28;20054;-69
2021/12/02 04:27:32;;;;;;;1.05;0.50;;;5.50;80.20;;;3.86;88.96;94381.41;4968006;28;20386;-69
2021/12/02 04:29:58;;;;;;;4.22;1.05;;;5.50;80.50;;;3.83;89.49;94378.38;4965476;28;20038;-69
2021/12/02 04:32:23;;;;;;;2.58;0.70;;;5.50;80.60;;;3.85;89.36;94379.00;4952501;28;20037;-67
2021/12/02 04:34:49;;;;;;;4.03;1.83;;;5.50;81.00;;;3.84;89.76;94366.97;4976667;28;20070;-70
2021/12/02 04:37:15;;;;;;;4.10;1.60;;;5.50;80.80;;;3.82;89.72;94364.56;4966692;28;20038;-69
2021/12/02 04:39:40;;;;;;;3.58;0.50;;;5.40;80.80;;;3.82;89.70;94368.97;4976795;28;20087;-69
2021/12/02 04:42:06;;;;;;;1.33;0.55;;;5.40;81.10;;;3.81;89.33;94367.34;4967624;28;20045;-69
2021/12/02 04:44:32;;;;;;;4.13;0.90;;;5.40;81.10;;;3.79;89.96;94370.16;4985976;28;20026;-70
2021/12/02 04:46:58;;;;;;;4.85;2.20;;;5.40;81.20;;;3.78;89.55;94372.94;4964373;28;20126;-68
2021/12/02 04:49:23;;;;;;;5.32;1.50;;;5.30;81.40;;;3.75;89.54;94373.31;4987317;28;20438;-67
2021/12/02 04:51:49;;;;;;;4.03;1.10;;;5.30;81.70;;;3.74;90.13;94371.72;4988051;28;20050;-68
2021/12/02 04:54:15;;;;;;;5.43;2.00;;;5.30;81.80;;;3.74;90.20;94372.50;4987564;28;20149;-68
2021/12/02 04:56:41;;;;;;;7.00;3.25;;;5.40;82.00;;;3.74;90.34;94371.72;4988077;28;20130;-67
2021/12/02 04:59:06;;;;;;;3.20;1.25;;;5.40;81.80;;;3.74;90.50;94372.50;4955469;28;20049;-67
2021/12/02 05:01:32;;;;;;;3.20;0.50;;;5.40;82.20;;;3.74;90.72;94376.91;4971288;28;20081;-67
2021/12/02 05:03:58;;;;;;;2.20;0.50;;;5.40;82.10;;;3.70;91.12;94381.69;4971266;28;20030;-67
2021/12/02 05:06:23;;;;;;;5.63;0.93;;;5.20;82.80;;;3.68;91.67;94381.88;4979615;28;20275;-69
2021/12/02 05:08:49;;;;;;;2.80;0.47;;;5.20;83.30;;;3.66;91.35;94370.06;4955583;28;20035;-68
2021/12/02 05:11:15;;;;;;;1.08;0.35;;;5.30;83.20;;;3.66;91.88;94370.88;4956003;28;20031;-68
2021/12/02 05:13:41;;;;;;;0.98;0.43;;;5.20;83.30;;;3.60;91.96;94357.81;4971938;28;20093;-68
2021/12/02 05:16:06;;;;;;;0.90;0.30;;;5.10;83.90;;;3.60;91.83;94356.00;4990895;28;20108;-68
2021/12/02 05:18:32;;;;;;;1.02;0.20;;;5.20;83.30;;;3.56;91.83;94353.97;4988896;28;20022;-68
2021/12/02 05:20:59;;;;;;;0.30;0.30;;;5.10;83.20;;;3.53;92.08;94362.97;5010690;28;20144;-67
2021/12/02 05:23:25;;;;;;;0.57;0.30;;;5.10;83.40;;;3.48;91.94;94367.91;4975590;28;20077;-67
2021/12/02 05:25:51;;;;;;;1.45;0.40;;;5.00;83.90;;;3.44;92.49;94366.69;4974602;28;20069;-67
2021/12/02 05:28:18;;;;;;;2.55;0.40;;;5.00;84.00;;;3.44;92.76;94373.69;4985439;28;20051;-67
2021/12/02 05:30:44;;;;;;;2.80;1.13;;;5.00;84.20;;;3.42;93.18;94360.88;4984961;28;20035;-68
2021/12/02 05:33:10;;;;;;;3.65;1.50;;;5.00;84.40;;;3.41;93.42;94367.06;4960649;28;20057;-67
2021/12/02 05:35:36;;;;;;;6.10;3.00;;;5.00;84.40;;;3.42;93.09;94370.47;4971762;28;20405;-68
2021/12/02 05:38:02;;;;;;;9.52;5.38;;;5.00;84.70;;;3.43;93.77;94375.47;4985094;28;20379;-65
2021/12/02 05:40:28;;;;;;;7.25;3.75;;;5.10;84.70;;;3.44;93.96;94377.09;4992435;28;20458;-65
2021/12/02 05:42:53;;;;;;;10.02;6.38;;;5.20;84.40;;;3.47;94.03;94375.91;4973907;28;20034;-68
2021/12/02 05:45:19;;;;;;;5.43;3.58;;;5.20;84.30;;;3.46;93.53;94371.69;4973253;28;20609;-68
2021/12/02 05:47:45;;;;;;;10.02;5.68;;;5.20;84.00;;;3.44;93.99;94374.50;4990767;28;20126;-68
2021/12/02 05:50:11;;;;;;;7.63;5.15;;;5.30;84.30;;;3.45;93.78;94373.50;4981120;28;20540;-68
2021/12/02 05:52:36;;;;;;;9.40;4.72;;;5.30;83.80;;;3.46;94.05;94376.91;4978555;28;20043;-68
2021/12/02 05:55:02;;;;;;;9.65;6.35;;;5.30;83.80;;;3.46;93.86;94372.50;4970674;28;20105;-69
2021/12/02 05:57:29;;;;;;;5.05;2.92;;;5.30;84.00;;;3.48;94.19;94378.31;4974080;28;20076;-68
2021/12/02 05:59:54;;;;;;;2.47;1.00;;;5.30;83.90;;;3.48;94.13;94369.72;4967509;28;20030;-70
2021/12/02 06:02:20;;;;;;;1.70;0.60;;;5.40;83.80;;;3.50;94.20;94368.53;4967381;28;20042;-67
2021/12/02 06:04:50;;;;;;;1.17;0.70;;;5.40;83.90;;;3.52;94.38;94374.34;4986269;28;20034;-67
2021/12/02 06:07:16;;;;;;;0.73;0.40;;;5.50;83.70;;;3.54;94.72;94382.75;4968554;28;20061;-65
2021/12/02 06:09:42;;;;;;;2.20;0.65;;;5.50;83.60;;;3.56;94.55;94383.38;4988847;28;20106;-67
2021/12/02 06:12:08;;;;;;;1.85;0.60;;;5.60;83.50;;;3.58;94.57;94384.00;4988345;28;20462;-66
2021/12/02 06:14:33;;;;;;;0.95;0.50;;;5.60;83.30;;;3.60;95.00;94387.19;4970522;28;20034;-66
2021/12/02 06:16:59;;;;;;;2.13;0.80;;;5.60;83.20;;;3.61;94.73;94388.81;4956293;28;20097;-66
2021/12/02 06:19:25;;;;;;;3.50;1.20;;;5.60;83.20;;;3.65;94.42;94389.25;4983851;28;20482;-66
2021/12/02 06:21:51;;;;;;;1.75;0.95;;;5.70;83.20;;;3.67;94.47;94388.06;4974083;28;20026;-70
2021/12/02 06:24:17;;;;;;;3.10;1.00;;;5.70;83.10;;;3.69;95.25;94395.69;4970410;28;20046;-64
2021/12/02 06:26:43;;;;;;;1.33;0.70;;;5.70;82.90;;;3.69;95.16;94396.50;4972134;28;20129;-68
2021/12/02 06:29:09;;;;;;;4.00;0.90;;;5.70;83.20;;;3.69;94.99;94399.09;4970366;28;20066;-68
2021/12/02 06:31:35;;;;;;;2.53;0.50;;;5.60;82.70;;;3.66;93.97;94407.28;4987442;28;20037;-67
2021/12/02 06:34:01;;;;;;;2.15;0.60;;;5.40;81.30;;;3.59;93.69;94395.19;4988941;28;20093;-68
2021/12/02 06:36:27;;;;;;;5.85;3.88;;;5.30;81.70;;;3.54;93.32;94403.56;4964419;28;20030;-67
2021/12/02 06:38:53;;;;;;;2.08;1.02;;;5.20;82.00;;;3.48;92.51;94399.09;4989670;28;20027;-69
2021/12/02 06:41:19;;;;;;;2.55;1.40;;;5.10;82.10;;;3.42;92.85;94405.06;4986410;28;20031;-67
2021/12/02 06:43:45;;;;;;;2.33;0.70;;;5.00;82.70;;;3.37;93.18;94397.81;4975306;28;20026;-68
2021/12/02 06:46:12;;;;;;;7.45;3.67;;;5.00;82.50;;;3.35;92.63;94401.56;4981843;28;20510;-68
2021/12/02 06:48:38;;;;;;;4.53;2.25;;;5.00;82.90;;;3.34;92.96;94397.38;4989933;28;20037;-67
2021/12/02 06:51:03;;;;;;;12.48;8.98;;;5.00;82.70;;;3.34;93.10;94403.38;4987259;28;20451;-73
2021/12/02 06:53:29;;;;;;;13.07;9.00;;;5.00;83.20;;;3.31;92.90;94413.34;4989551;28;20038;-64
2021/12/02 06:55:55;;;;;;;11.60;4.63;;;5.00;83.30;;;3.32;93.30;94414.94;4972964;28;20061;-64
2021/12/02 06:58:20;;;;;;;6.65;3.88;;;5.10;83.70;;;3.30;93.93;94412.53;4957286;28;20038;-64
2021/12/02 07:00:46;;;;;;;1.80;1.05;;;5.10;83.20;;;3.27;93.04;94412.91;4950875;28;20042;-64
2021/12/02 07:03:12;;;;;;;3.67;0.90;;;5.10;82.50;;;3.24;92.98;94422.88;4955749;28;20092;-65
2021/12/02 07:05:38;;;;;;;1.90;0.80;;;4.90;83.00;;;3.20;93.29;94419.03;4963954;28;20038;-67
2021/12/02 07:08:04;;;;;;;2.60;1.00;;;5.00;83.00;;;3.19;93.30;94420.03;4988497;28;20034;-69
2021/12/02 07:10:32;;;;;;;3.15;1.60;;;4.90;83.20;;;3.18;93.90;94413.22;4967394;28;20037;-69
2021/12/02 07:12:58;;;;;;;2.42;1.33;;;4.90;83.40;;;3.15;94.09;94408.38;4979922;28;20039;-69
2021/12/02 07:15:32;;;;;;;2.58;1.52;;;4.90;83.80;;;3.12;94.01;94409.56;4980319;28;20096;-66
2021/12/02 07:18:00;;;;;;;3.80;1.30;;;4.80;83.90;;;3.12;94.30;94403.56;4957994;28;20050;-64
2021/12/02 07:20:33;;;;;;;2.30;1.67;;;4.90;84.00;;;3.11;94.42;94401.94;5005858;28;20109;-67
2021/12/02 07:22:59;;;;;;;2.17;1.30;;;4.80;84.10;;;3.12;94.13;94406.16;4962490;28;20056;-67
2021/12/02 07:25:26;;;;;;;3.53;1.40;;;4.90;83.80;;;3.13;93.94;94407.75;4956387;28;20517;-67
2021/12/02 07:27:52;;;;;;;4.00;1.52;;;4.90;83.70;;;3.15;94.41;94411.78;4971762;28;20529;-67
2021/12/02 07:30:17;;;;;;;3.38;1.58;;;5.00;84.00;;;3.17;94.22;94412.44;4983815;28;20062;-69
2021/12/02 07:32:53;;;;;;;2.60;1.40;;;5.00;83.80;;;3.18;94.85;94418.44;4981651;28;20053;-69
2021/12/02 07:35:19;;;;;;;3.40;1.60;;;5.00;83.40;;;3.23;94.21;94413.47;4966075;28;20031;-67
2021/12/02 07:37:57;;;;;;;3.33;1.65;;;5.10;83.50;;;3.27;94.85;94422.50;4954105;28;20047;-66
2021/12/02 07:40:23;;;;;;;3.63;1.50;;;5.10;83.60;;;3.30;94.55;94422.13;4957255;28;20160;-70
2021/12/02 07:42:53;;;;;;;5.93;3.75;;;5.10;83.30;;;3.34;94.24;94416.38;4971053;28;20081;-68
2021/12/02 07:45:24;;;;;;;3.88;2.72;;;5.20;83.10;;;3.40;94.23;94406.25;4963688;28;20060;-67
2021/12/02 07:47:50;;;;;;;2.45;1.60;;;5.40;82.40;;;3.47;94.00;94412.28;4954139;28;20046;-68
2021/12/02 07:50:16;;;;;;;2.30;1.40;;;5.40;82.30;;;3.50;93.91;94417.13;4969166;28;20105;-71
2021/12/02 07:52:55;;;;;;;2.78;1.20;;;5.50;81.80;;;3.52;93.47;94410.75;4971168;28;20125;-71
2021/12/02 07:55:22;;;;;;;3.05;1.20;;;5.40;82.10;;;3.54;93.55;94408.75;4973391;28;20054;-68
2021/12/02 07:57:49;;;;;;;4.32;1.23;;;5.50;81.60;;;3.57;93.40;94407.56;4968117;28;20646;-67
2021/12/02 08:00:20;;;;;;;2.67;1.13;;;5.50;81.20;;;3.58;92.88;94412.56;4955881;28;20034;-67
2021/12/02 08:02:48;;;;;;;1.65;1.10;;;5.60;81.10;;;3.62;92.80;94406.03;4962513;28;20023;-69
2021/12/02 08:05:14;;;;;;;2.28;1.10;;;5.60;81.00;;;3.67;93.22;94408.06;4955758;28;20034;-66
2021/12/02 08:07:41;;;;;;;3.20;1.10;;;5.60;81.10;;;3.72;92.89;94410.09;4970657;28;20172;-67
2021/12/02 08:10:08;;;;;;;3.55;1.30;;;5.60;80.80;;;3.77;92.20;94407.72;4968931;28;20038;-70
2021/12/02 08:12:35;;;;;;;2.05;1.02;;;5.70;80.20;;;3.80;92.30;94402.16;4955264;28;20137;-64
2021/12/02 08:15:03;;;;;;;2.33;1.10;;;5.70;79.90;;;3.85;91.76;94412.81;4980509;28;20562;-65
2021/12/02 08:17:28;;;;;;;2.45;1.10;;;5.70;79.60;;;3.87;91.10;94418.63;4954999;28;20473;-64
2021/12/02 08:19:54;;;;;;;2.17;1.08;;;5.70;79.30;;;3.92;90.61;94414.47;4991991;28;20081;-65
2021/12/02 08:22:20;;;;;;;3.05;1.27;;;5.80;78.60;;;3.98;90.36;94416.31;4984958;28;20055;-65
2021/12/02 08:24:45;;;;;;;4.88;1.00;;;5.90;78.50;;;4.03;90.99;94417.53;4984973;28;20042;-64
2021/12/02 08:27:11;;;;;;;2.63;1.02;;;6.00;78.60;;;4.10;90.09;94414.00;4985336;28;20121;-65
2021/12/02 08:29:37;;;;;;;2.90;0.95;;;6.10;77.70;;;4.19;89.28;94412.84;4985950;28;20153;-65
2021/12/02 08:32:03;;;;;;;2.42;0.85;;;6.20;76.80;;;4.31;89.66;94420.94;4967970;28;20041;-65
2021/12/02 08:34:29;;;;;;;1.35;0.80;;;6.50;76.40;;;4.44;88.69;94415.78;4970369;28;20042;-64
2021/12/02 08:36:56;;;;;;;2.53;0.82;;;6.70;75.20;;;4.59;88.05;94418.28;4955827;28;20112;-63
2021/12/02 08:39:23;;;;;;;1.88;0.80;;;6.70;74.90;;;4.73;87.90;94417.31;4988172;28;20031;-66
2021/12/02 08:41:50;;;;;;;2.33;0.90;;;7.10;75.10;;;4.90;87.33;94415.97;4955651;28;20090;-67
2021/12/02 08:44:17;;;;;;;2.22;0.80;;;7.20;73.30;;;5.06;86.91;94424.47;4990651;28;20039;-64
2021/12/02 08:46:43;;;;;;;2.92;0.80;;;7.30;72.70;;;5.16;86.82;94417.06;4959860;28;20030;-64
2021/12/02 08:49:08;;;;;;;3.67;0.90;;;7.40;73.20;;;5.28;86.50;94415.50;4975348;28;20053;-66
2021/12/02 08:51:34;;;;;;;2.30;0.77;;;7.50;72.50;;;5.39;85.94;94409.69;4975298;28;20103;-65
2021/12/02 08:54:00;;;;;;;2.22;0.80;;;7.60;71.90;;;5.47;85.68;94412.13;4974078;28;20058;-66
2021/12/02 08:56:26;;;;;;;2.45;0.90;;;7.60;72.10;;;5.50;84.50;94405.72;4989209;28;20033;-66
2021/12/02 08:58:52;;;;;;;4.68;1.08;;;7.50;71.50;;;5.49;83.30;94406.72;4958988;28;20438;-66
2021/12/02 09:01:18;;;;;;;2.08;0.75;;;7.20;71.10;;;5.46;83.41;94410.53;4991289;28;20457;-66
2021/12/02 09:03:44;;;;;;;3.35;0.90;;;7.10;71.80;;;5.44;83.11;94407.31;4975157;28;20041;-65
2021/12/02 09:06:11;;;;;;;5.13;2.10;;;7.20;72.00;;;5.46;82.47;94409.72;4972167;28;20399;-65
2021/12/02 09:08:38;;;;;;;7.45;4.72;;;7.30;72.50;;;5.44;82.96;94416.94;4966371;28;20038;-65
2021/12/02 09:11:04;;;;;;;2.45;1.30;;;7.20;72.60;;;5.42;83.32;94419.72;4991420;28;20037;-66
2021/12/02 09:13:31;;;;;;;2.15;0.70;;;7.20;72.90;;;5.38;82.67;94421.13;4990006;28;20405;-65
2021/12/02 09:15:56;;;;;;;2.88;1.02;;;7.10;73.10;;;5.34;82.21;94417.31;4974680;28;20437;-66
2021/12/02 09:18:22;;;;;;;2.25;0.93;;;7.00;73.10;;;5.28;83.10;94417.31;4975370;28;20153;-66
2021/12/02 09:20:48;;;;;;;3.55;1.20;;;6.90;73.20;;;5.25;82.84;94423.72;4972025;28;20054;-64
2021/12/02 09:23:14;;;;;;;2.47;1.10;;;7.10;73.80;;;5.22;83.13;94422.31;4966348;28;20057;-65
2021/12/02 09:25:41;;;;;;;5.50;0.77;;;7.00;73.50;;;5.18;82.03;94417.66;4990934;28;20035;-65
2021/12/02 09:28:07;;;;;;;3.35;0.93;;;6.80;72.60;;;5.16;82.42;94423.06;4990962;28;20060;-66
2021/12/02 09:30:32;;;;;;;4.07;1.00;;;6.90;73.40;;;5.14;82.86;94427.69;4957746;28;20042;-66
2021/12/02 09:32:58;;;;;;;2.92;0.90;;;6.90;73.20;;;5.15;82.71;94418.88;4963256;28;20030;-66
2021/12/02 09:35:24;;;;;;;3.28;1.20;;;7.10;72.70;;;5.19;82.15;94419.28;4982459;28;20604;-66
2021/12/02 09:37:50;;;;;;;3.75;1.20;;;7.20;72.60;;;5.20;82.92;94419.09;4962297;28;20402;-64
2021/12/02 09:40:16;;;;;;;2.00;1.02;;;7.10;72.10;;;5.19;82.98;94421.88;4989570;28;20065;-67
2021/12/02 09:42:42;;;;;;;4.55;0.82;;;7.00;72.60;;;5.19;82.47;94416.66;4988745;28;20035;-66
2021/12/02 09:45:08;;;;;;;3.35;1.15;;;7.00;72.80;;;5.18;82.55;94417.66;4988803;28;20042;-68
2021/12/02 09:47:40;;;;;;;4.32;1.17;;;7.00;72.70;;;5.18;82.49;94418.47;4986534;28;20566;-69
2021/12/02 09:50:13;;;;;;;3.67;1.05;;;7.10;72.70;;;5.21;81.24;94418.09;4984255;28;20077;-66
2021/12/02 09:52:40;;;;;;;3.30;1.10;;;7.20;71.80;;;5.31;82.47;94409.88;4965399;28;20038;-67
2021/12/02 09:55:23;;;;;;;2.97;0.95;;;7.70;71.00;;;5.46;81.47;94404.50;4958147;28;20030;-69
2021/12/02 09:57:57;;;;;;;2.60;1.38;;;7.80;69.20;;;5.59;81.83;94399.28;4990772;28;20035;-65
2021/12/02 10:00:50;;;;;;;1.83;0.85;;;7.90;69.00;;;5.67;80.75;94400.91;4975337;28;20367;-71
2021/12/02 10:03:22;;;;;;;4.22;0.93;;;7.80;70.20;;;5.78;80.66;94392.47;4989625;28;20050;-65
2021/12/02 10:05:57;;;;;;;2.60;0.82;;;7.90;70.00;;;5.84;79.41;94381.22;4989862;28;20042;-68
2021/12/02 10:08:31;;;;;;;2.25;0.93;;;7.90;68.20;;;5.91;79.48;94382.06;4959682;28;20505;-67
2021/12/02 10:11:01;;;;;;;2.60;0.77;;;8.00;68.00;;;5.99;80.18;94383.66;4945663;28;20027;-69
2021/12/02 10:13:37;;;;;;;2.83;0.75;;;8.20;68.40;;;6.04;78.52;94384.66;4958459;28;20054;-64
2021/12/02 10:16:09;;;;;;;3.83;1.05;;;8.20;68.30;;;6.16;79.15;94389.28;4958951;28;20038;-67
2021/12/02 10:21:31;;;;;;;1.80;1.00;;;8.30;67.10;;;6.23;78.27;94374.41;4990156;28;20035;-72
2021/12/02 10:24:03;;;;;;;2.15;0.93;;;8.10;67.00;;;6.21;77.34;94381.63;4972150;28;20085;-68
2021/12/02 10:26:28;;;;;;;5.85;1.20;;;8.00;67.70;;;6.18;77.69;94375.00;4974297;28;20093;-67
2021/12/02 10:28:54;;;;;;;3.20;0.80;;;8.00;68.70;;;6.14;77.97;94374.63;4957058;28;20042;-67
2021/12/02 10:31:24;;;;;;;2.90;0.90;;;7.90;68.90;;;6.15;77.84;94372.81;4972215;28;20039;-68
2021/12/02 10:33:59;;;;;;;4.85;0.85;;;8.10;69.10;;;6.19;77.31;94368.78;4986685;28;20038;-65
2021/12/02 10:36:34;;;;;;;2.70;0.82;;;8.20;68.40;;;6.21;76.95;94371.19;4986092;28;20063;-65
2021/12/02 10:39:22;;;;;;;1.73;0.57;;;8.10;67.20;;;6.28;76.27;94361.53;4983607;28;20037;-66
2021/12/02 10:42:02;;;;;;;2.00;0.63;;;8.40;67.30;;;6.36;76.13;94361.31;4988566;28;20030;-68
2021/12/02 10:44:33;;;;;;;3.38;0.70;;;8.50;65.80;;;6.39;77.25;94368.75;4967228;28;20053;-65
2021/12/02 10:47:06;;;;;;;;;;;8.40;66.40;;;6.39;75.22;94368.75;4955651;28;20122;-68
2021/12/02 10:50:07;;;;;;;1.90;0.75;;;8.60;66.00;;;6.56;75.82;94369.88;4977598;28;19924;-67
2021/12/02 10:52:33;;;;;;;1.80;0.80;;;9.50;63.20;;;6.79;77.58;94363.34;4988510;28;20030;-68